sensor_id;sensor_type;location;lat;lon;timestamp;P1;durP1;ratioP1;P2;durP2;ratioP2
31482;SDS011;18103;52.246;8.052;2022-11-30T00:00:16;23.63;;;9.67;;
31482;SDS011;18103;52.246;8.052;2022-11-30T00:02:43;19.77;;;8.47;;
31482;SDS011;18103;52.246;8.052;2022-11-30T00:05:13;26.63;;;9.60;;
31482;SDS011;18103;52.246;8.052;2022-11-30T00:07:39;24.07;;;8.53;;
31482;SDS011;18103;52.246;8.052;2022-11-30T00:10:05;27.40;;;9.77;;
31482;SDS011;18103;52.246;8.052;2022-11-30T00:12:31;22.07;;;9.07;;
31482;SDS011;18103;52.246;8.052;2022-11-30T00:14:57;27.47;;;9.37;;
31482;SDS011;18103;52.246;8.052;2022-11-30T00:17:23;25.37;;;10.23;;
31482;SDS011;18103;52.246;8.052;2022-11-30T00:19:49;24.33;;;9.33;;
31482;SDS011;18103;52.246;8.052;2022-11-30T00:22:14;22.73;;;10.00;;
31482;SDS011;18103;52.246;8.052;2022-11-30T00:24:43;25.13;;;10.13;;
31482;SDS011;18103;52.246;8.052;2022-11-30T00:27:08;18.13;;;8.30;;
31482;SDS011;18103;52.246;8.052;2022-11-30T00:29:33;27.70;;;10.87;;
31482;SDS011;18103;52.246;8.052;2022-11-30T00:31:59;25.73;;;9.47;;
31482;SDS011;18103;52.246;8.052;2022-11-30T00:34:24;21.43;;;9.33;;
31482;SDS011;18103;52.246;8.052;2022-11-30T00:36:49;33.60;;;10.67;;
31482;SDS011;18103;52.246;8.052;2022-11-30T00:39:15;22.27;;;9.27;;
31482;SDS011;18103;52.246;8.052;2022-11-30T00:41:40;24.50;;;9.90;;
31482;SDS011;18103;52.246;8.052;2022-11-30T00:44:06;20.30;;;9.60;;
31482;SDS011;18103;52.246;8.052;2022-11-30T00:46:31;29.50;;;10.70;;
31482;SDS011;18103;52.246;8.052;2022-11-30T00:48:56;27.40;;;9.67;;
31482;SDS011;18103;52.246;8.052;2022-11-30T00:51:22;29.07;;;10.37;;
31482;SDS011;18103;52.246;8.052;2022-11-30T00:53:47;26.90;;;10.93;;
31482;SDS011;18103;52.246;8.052;2022-11-30T00:56:13;31.23;;;11.17;;
31482;SDS011;18103;52.246;8.052;2022-11-30T00:58:39;26.73;;;10.73;;
31482;SDS011;18103;52.246;8.052;2022-11-30T01:01:04;26.57;;;10.23;;
31482;SDS011;18103;52.246;8.052;2022-11-30T01:03:31;26.90;;;10.90;;
31482;SDS011;18103;52.246;8.052;2022-11-30T01:06:04;29.77;;;9.90;;
31482;SDS011;18103;52.246;8.052;2022-11-30T01:08:31;24.97;;;10.47;;
31482;SDS011;18103;52.246;8.052;2022-11-30T01:11:02;22.80;;;10.73;;
31482;SDS011;18103;52.246;8.052;2022-11-30T01:13:33;25.23;;;10.80;;
31482;SDS011;18103;52.246;8.052;2022-11-30T01:15:58;28.03;;;10.57;;
31482;SDS011;18103;52.246;8.052;2022-11-30T01:18:24;23.67;;;10.17;;
31482;SDS011;18103;52.246;8.052;2022-11-30T01:20:50;27.50;;;11.00;;
31482;SDS011;18103;52.246;8.052;2022-11-30T01:23:15;27.57;;;10.50;;
31482;SDS011;18103;52.246;8.052;2022-11-30T01:25:40;25.20;;;10.17;;
31482;SDS011;18103;52.246;8.052;2022-11-30T01:28:07;20.90;;;9.73;;
31482;SDS011;18103;52.246;8.052;2022-11-30T01:30:34;19.50;;;10.10;;
31482;SDS011;18103;52.246;8.052;2022-11-30T01:33:02;26.60;;;9.13;;
31482;SDS011;18103;52.246;8.052;2022-11-30T01:35:28;23.90;;;10.17;;
31482;SDS011;18103;52.246;8.052;2022-11-30T01:37:54;26.00;;;11.17;;
31482;SDS011;18103;52.246;8.052;2022-11-30T01:40:19;22.27;;;9.73;;
31482;SDS011;18103;52.246;8.052;2022-11-30T01:42:45;25.40;;;10.20;;
31482;SDS011;18103;52.246;8.052;2022-11-30T01:45:11;30.90;;;9.83;;
31482;SDS011;18103;52.246;8.052;2022-11-30T01:47:39;25.63;;;9.90;;
31482;SDS011;18103;52.246;8.052;2022-11-30T01:53:02;20.17;;;9.30;;
31482;SDS011;18103;52.246;8.052;2022-11-30T01:55:36;23.77;;;9.37;;
31482;SDS011;18103;52.246;8.052;2022-11-30T01:58:10;20.90;;;9.17;;
31482;SDS011;18103;52.246;8.052;2022-11-30T02:00:40;22.70;;;9.57;;
31482;SDS011;18103;52.246;8.052;2022-11-30T02:05:47;19.07;;;8.87;;
31482;SDS011;18103;52.246;8.052;2022-11-30T02:08:13;21.27;;;8.77;;
31482;SDS011;18103;52.246;8.052;2022-11-30T02:10:39;19.63;;;8.53;;
31482;SDS011;18103;52.246;8.052;2022-11-30T02:32:03;16.87;;;7.50;;
31482;SDS011;18103;52.246;8.052;2022-11-30T02:34:36;21.43;;;8.43;;
31482;SDS011;18103;52.246;8.052;2022-11-30T02:37:04;18.60;;;6.80;;
31482;SDS011;18103;52.246;8.052;2022-11-30T02:39:31;13.87;;;6.30;;
31482;SDS011;18103;52.246;8.052;2022-11-30T02:41:57;19.63;;;7.63;;
31482;SDS011;18103;52.246;8.052;2022-11-30T02:44:22;15.63;;;6.80;;
31482;SDS011;18103;52.246;8.052;2022-11-30T02:47:11;15.70;;;6.40;;
31482;SDS011;18103;52.246;8.052;2022-11-30T02:49:59;14.30;;;5.73;;
31482;SDS011;18103;52.246;8.052;2022-11-30T02:52:32;20.00;;;6.93;;
31482;SDS011;18103;52.246;8.052;2022-11-30T02:54:59;13.27;;;6.40;;
31482;SDS011;18103;52.246;8.052;2022-11-30T02:57:27;16.47;;;7.10;;
31482;SDS011;18103;52.246;8.052;2022-11-30T02:59:53;15.50;;;6.57;;
31482;SDS011;18103;52.246;8.052;2022-11-30T03:02:19;14.90;;;6.67;;
31482;SDS011;18103;52.246;8.052;2022-11-30T03:04:44;11.67;;;6.70;;
31482;SDS011;18103;52.246;8.052;2022-11-30T03:07:09;18.00;;;6.47;;
31482;SDS011;18103;52.246;8.052;2022-11-30T03:09:35;13.50;;;6.30;;
31482;SDS011;18103;52.246;8.052;2022-11-30T03:12:00;17.20;;;6.23;;
31482;SDS011;18103;52.246;8.052;2022-11-30T03:14:25;17.57;;;7.70;;
31482;SDS011;18103;52.246;8.052;2022-11-30T03:16:51;13.50;;;6.30;;
31482;SDS011;18103;52.246;8.052;2022-11-30T03:19:16;17.30;;;7.07;;
31482;SDS011;18103;52.246;8.052;2022-11-30T03:21:42;12.50;;;6.30;;
31482;SDS011;18103;52.246;8.052;2022-11-30T03:24:07;16.30;;;6.83;;
31482;SDS011;18103;52.246;8.052;2022-11-30T03:26:32;18.63;;;7.73;;
31482;SDS011;18103;52.246;8.052;2022-11-30T03:28:58;15.70;;;7.00;;
31482;SDS011;18103;52.246;8.052;2022-11-30T03:31:23;18.80;;;7.07;;
31482;SDS011;18103;52.246;8.052;2022-11-30T03:33:49;20.30;;;7.30;;
31482;SDS011;18103;52.246;8.052;2022-11-30T03:36:14;19.40;;;7.67;;
31482;SDS011;18103;52.246;8.052;2022-11-30T03:38:39;22.53;;;7.70;;
31482;SDS011;18103;52.246;8.052;2022-11-30T03:41:11;15.17;;;7.13;;
31482;SDS011;18103;52.246;8.052;2022-11-30T03:43:40;10.80;;;6.43;;
31482;SDS011;18103;52.246;8.052;2022-11-30T03:46:06;11.70;;;6.17;;
31482;SDS011;18103;52.246;8.052;2022-11-30T03:48:31;15.67;;;5.90;;
31482;SDS011;18103;52.246;8.052;2022-11-30T03:50:57;11.67;;;5.20;;
31482;SDS011;18103;52.246;8.052;2022-11-30T03:53:25;10.20;;;5.70;;
31482;SDS011;18103;52.246;8.052;2022-11-30T03:55:54;11.87;;;5.50;;
31482;SDS011;18103;52.246;8.052;2022-11-30T03:58:22;13.00;;;5.93;;
31482;SDS011;18103;52.246;8.052;2022-11-30T04:00:48;12.67;;;5.70;;
31482;SDS011;18103;52.246;8.052;2022-11-30T04:03:34;11.93;;;6.13;;
31482;SDS011;18103;52.246;8.052;2022-11-30T04:06:00;10.07;;;6.00;;
31482;SDS011;18103;52.246;8.052;2022-11-30T04:08:26;11.50;;;5.37;;
31482;SDS011;18103;52.246;8.052;2022-11-30T04:10:53;13.53;;;5.97;;
31482;SDS011;18103;52.246;8.052;2022-11-30T04:13:20;14.40;;;6.20;;
31482;SDS011;18103;52.246;8.052;2022-11-30T04:15:50;15.00;;;6.30;;
31482;SDS011;18103;52.246;8.052;2022-11-30T04:18:17;12.83;;;5.83;;
31482;SDS011;18103;52.246;8.052;2022-11-30T04:20:44;12.27;;;6.23;;
31482;SDS011;18103;52.246;8.052;2022-11-30T04:23:10;15.40;;;7.80;;
31482;SDS011;18103;52.246;8.052;2022-11-30T04:25:39;15.77;;;7.80;;
31482;SDS011;18103;52.246;8.052;2022-11-30T04:28:05;16.03;;;7.57;;
31482;SDS011;18103;52.246;8.052;2022-11-30T04:30:32;16.47;;;7.83;;
31482;SDS011;18103;52.246;8.052;2022-11-30T04:32:59;16.83;;;7.23;;
31482;SDS011;18103;52.246;8.052;2022-11-30T04:35:25;17.97;;;7.63;;
31482;SDS011;18103;52.246;8.052;2022-11-30T04:37:51;19.57;;;7.60;;
31482;SDS011;18103;52.246;8.052;2022-11-30T04:40:16;15.20;;;8.17;;
31482;SDS011;18103;52.246;8.052;2022-11-30T04:42:42;19.27;;;6.80;;
31482;SDS011;18103;52.246;8.052;2022-11-30T04:45:07;17.03;;;7.60;;
31482;SDS011;18103;52.246;8.052;2022-11-30T04:47:33;17.97;;;7.67;;
31482;SDS011;18103;52.246;8.052;2022-11-30T04:49:59;19.20;;;7.40;;
31482;SDS011;18103;52.246;8.052;2022-11-30T04:52:24;18.60;;;7.87;;
31482;SDS011;18103;52.246;8.052;2022-11-30T04:54:50;21.20;;;8.40;;
31482;SDS011;18103;52.246;8.052;2022-11-30T04:57:17;18.53;;;8.77;;
31482;SDS011;18103;52.246;8.052;2022-11-30T04:59:43;14.60;;;7.00;;
31482;SDS011;18103;52.246;8.052;2022-11-30T05:02:08;20.90;;;7.67;;
31482;SDS011;18103;52.246;8.052;2022-11-30T05:04:34;16.47;;;7.03;;
31482;SDS011;18103;52.246;8.052;2022-11-30T05:07:00;20.73;;;7.43;;
31482;SDS011;18103;52.246;8.052;2022-11-30T05:09:25;15.43;;;6.47;;
31482;SDS011;18103;52.246;8.052;2022-11-30T05:11:51;12.10;;;7.13;;
31482;SDS011;18103;52.246;8.052;2022-11-30T05:14:16;11.07;;;6.07;;
31482;SDS011;18103;52.246;8.052;2022-11-30T05:16:42;15.20;;;6.97;;
31482;SDS011;18103;52.246;8.052;2022-11-30T05:19:08;14.93;;;6.87;;
31482;SDS011;18103;52.246;8.052;2022-11-30T05:21:33;13.00;;;6.47;;
31482;SDS011;18103;52.246;8.052;2022-11-30T05:23:58;11.23;;;7.00;;
31482;SDS011;18103;52.246;8.052;2022-11-30T05:26:24;13.93;;;6.60;;
31482;SDS011;18103;52.246;8.052;2022-11-30T05:28:49;11.43;;;6.00;;
31482;SDS011;18103;52.246;8.052;2022-11-30T05:31:15;15.47;;;6.07;;
31482;SDS011;18103;52.246;8.052;2022-11-30T05:33:41;15.80;;;6.10;;
31482;SDS011;18103;52.246;8.052;2022-11-30T05:36:13;13.37;;;6.57;;
31482;SDS011;18103;52.246;8.052;2022-11-30T05:38:39;14.30;;;6.33;;
31482;SDS011;18103;52.246;8.052;2022-11-30T05:41:07;12.33;;;6.97;;
31482;SDS011;18103;52.246;8.052;2022-11-30T05:43:33;14.03;;;6.70;;
31482;SDS011;18103;52.246;8.052;2022-11-30T05:45:59;13.60;;;6.67;;
31482;SDS011;18103;52.246;8.052;2022-11-30T05:48:28;13.47;;;6.57;;
31482;SDS011;18103;52.246;8.052;2022-11-30T05:50:54;12.20;;;6.67;;
31482;SDS011;18103;52.246;8.052;2022-11-30T05:53:19;14.07;;;6.97;;
31482;SDS011;18103;52.246;8.052;2022-11-30T05:55:45;14.53;;;6.20;;
31482;SDS011;18103;52.246;8.052;2022-11-30T05:58:10;15.80;;;6.97;;
31482;SDS011;18103;52.246;8.052;2022-11-30T06:00:36;14.40;;;7.13;;
31482;SDS011;18103;52.246;8.052;2022-11-30T06:03:01;9.87;;;6.03;;
31482;SDS011;18103;52.246;8.052;2022-11-30T06:05:27;12.33;;;6.30;;
31482;SDS011;18103;52.246;8.052;2022-11-30T06:07:53;13.00;;;6.90;;
31482;SDS011;18103;52.246;8.052;2022-11-30T06:10:19;14.70;;;6.97;;
31482;SDS011;18103;52.246;8.052;2022-11-30T06:12:45;13.53;;;6.60;;
31482;SDS011;18103;52.246;8.052;2022-11-30T06:15:10;12.17;;;6.43;;
31482;SDS011;18103;52.246;8.052;2022-11-30T06:17:36;9.83;;;4.93;;
31482;SDS011;18103;52.246;8.052;2022-11-30T06:20:03;10.97;;;5.23;;
31482;SDS011;18103;52.246;8.052;2022-11-30T06:22:29;10.70;;;5.53;;
31482;SDS011;18103;52.246;8.052;2022-11-30T06:24:55;8.77;;;5.50;;
31482;SDS011;18103;52.246;8.052;2022-11-30T06:27:20;11.97;;;6.03;;
31482;SDS011;18103;52.246;8.052;2022-11-30T06:29:45;10.50;;;5.93;;
31482;SDS011;18103;52.246;8.052;2022-11-30T06:32:11;11.90;;;5.87;;
31482;SDS011;18103;52.246;8.052;2022-11-30T06:34:36;11.97;;;5.87;;
31482;SDS011;18103;52.246;8.052;2022-11-30T06:37:01;11.50;;;5.63;;
31482;SDS011;18103;52.246;8.052;2022-11-30T06:39:27;10.83;;;5.57;;
31482;SDS011;18103;52.246;8.052;2022-11-30T06:41:52;14.70;;;5.73;;
31482;SDS011;18103;52.246;8.052;2022-11-30T06:44:18;12.20;;;5.73;;
31482;SDS011;18103;52.246;8.052;2022-11-30T06:46:43;9.80;;;5.50;;
31482;SDS011;18103;52.246;8.052;2022-11-30T06:49:08;8.13;;;4.73;;
31482;SDS011;18103;52.246;8.052;2022-11-30T06:51:34;10.80;;;5.00;;
31482;SDS011;18103;52.246;8.052;2022-11-30T06:54:01;9.80;;;5.80;;
31482;SDS011;18103;52.246;8.052;2022-11-30T06:56:26;8.93;;;5.17;;
31482;SDS011;18103;52.246;8.052;2022-11-30T06:58:52;9.97;;;5.23;;
31482;SDS011;18103;52.246;8.052;2022-11-30T07:01:18;9.30;;;5.13;;
31482;SDS011;18103;52.246;8.052;2022-11-30T07:03:44;9.43;;;5.03;;
31482;SDS011;18103;52.246;8.052;2022-11-30T07:06:10;9.50;;;4.67;;
31482;SDS011;18103;52.246;8.052;2022-11-30T07:08:37;10.43;;;5.37;;
31482;SDS011;18103;52.246;8.052;2022-11-30T07:11:03;7.73;;;4.90;;
31482;SDS011;18103;52.246;8.052;2022-11-30T07:13:29;10.90;;;4.90;;
31482;SDS011;18103;52.246;8.052;2022-11-30T07:15:55;9.37;;;4.87;;
31482;SDS011;18103;52.246;8.052;2022-11-30T07:18:20;9.40;;;4.73;;
31482;SDS011;18103;52.246;8.052;2022-11-30T07:20:46;8.10;;;4.40;;
31482;SDS011;18103;52.246;8.052;2022-11-30T07:23:11;6.30;;;3.97;;
31482;SDS011;18103;52.246;8.052;2022-11-30T07:25:58;8.70;;;4.37;;
31482;SDS011;18103;52.246;8.052;2022-11-30T07:28:38;6.00;;;4.00;;
31482;SDS011;18103;52.246;8.052;2022-11-30T07:31:16;8.90;;;4.20;;
31482;SDS011;18103;52.246;8.052;2022-11-30T07:33:44;5.90;;;3.27;;
31482;SDS011;18103;52.246;8.052;2022-11-30T07:36:11;5.77;;;4.00;;
31482;SDS011;18103;52.246;8.052;2022-11-30T07:38:36;7.00;;;4.20;;
31482;SDS011;18103;52.246;8.052;2022-11-30T07:41:02;8.80;;;4.53;;
31482;SDS011;18103;52.246;8.052;2022-11-30T07:43:28;5.77;;;3.50;;
31482;SDS011;18103;52.246;8.052;2022-11-30T07:45:53;8.30;;;4.43;;
31482;SDS011;18103;52.246;8.052;2022-11-30T07:48:20;7.83;;;4.67;;
31482;SDS011;18103;52.246;8.052;2022-11-30T07:50:46;5.70;;;4.20;;
31482;SDS011;18103;52.246;8.052;2022-11-30T07:53:13;8.77;;;4.37;;
31482;SDS011;18103;52.246;8.052;2022-11-30T07:55:39;6.70;;;4.23;;
31482;SDS011;18103;52.246;8.052;2022-11-30T07:58:05;7.73;;;4.53;;
31482;SDS011;18103;52.246;8.052;2022-11-30T08:00:30;8.63;;;4.47;;
31482;SDS011;18103;52.246;8.052;2022-11-30T08:02:56;7.47;;;4.43;;
31482;SDS011;18103;52.246;8.052;2022-11-30T08:05:21;6.67;;;4.40;;
31482;SDS011;18103;52.246;8.052;2022-11-30T08:07:50;12.20;;;4.67;;
31482;SDS011;18103;52.246;8.052;2022-11-30T08:10:17;8.50;;;4.87;;
31482;SDS011;18103;52.246;8.052;2022-11-30T08:12:43;8.97;;;4.77;;
31482;SDS011;18103;52.246;8.052;2022-11-30T08:15:09;9.17;;;5.50;;
31482;SDS011;18103;52.246;8.052;2022-11-30T08:17:34;12.37;;;5.97;;
31482;SDS011;18103;52.246;8.052;2022-11-30T08:20:01;9.53;;;5.07;;
31482;SDS011;18103;52.246;8.052;2022-11-30T08:22:27;12.17;;;6.07;;
31482;SDS011;18103;52.246;8.052;2022-11-30T08:24:52;11.57;;;5.73;;
31482;SDS011;18103;52.246;8.052;2022-11-30T08:27:17;12.83;;;6.53;;
31482;SDS011;18103;52.246;8.052;2022-11-30T08:29:43;9.63;;;5.80;;
31482;SDS011;18103;52.246;8.052;2022-11-30T08:32:09;10.57;;;6.43;;
31482;SDS011;18103;52.246;8.052;2022-11-30T08:34:34;12.40;;;6.13;;
31482;SDS011;18103;52.246;8.052;2022-11-30T08:37:00;12.30;;;6.13;;
31482;SDS011;18103;52.246;8.052;2022-11-30T08:39:25;12.23;;;6.63;;
31482;SDS011;18103;52.246;8.052;2022-11-30T08:41:52;12.70;;;6.77;;
31482;SDS011;18103;52.246;8.052;2022-11-30T08:44:21;10.07;;;6.47;;
31482;SDS011;18103;52.246;8.052;2022-11-30T08:46:49;11.60;;;6.87;;
31482;SDS011;18103;52.246;8.052;2022-11-30T08:49:14;13.13;;;6.67;;
31482;SDS011;18103;52.246;8.052;2022-11-30T08:51:39;10.03;;;6.67;;
31482;SDS011;18103;52.246;8.052;2022-11-30T08:54:05;11.57;;;6.30;;
31482;SDS011;18103;52.246;8.052;2022-11-30T08:56:30;11.63;;;6.43;;
31482;SDS011;18103;52.246;8.052;2022-11-30T08:58:56;17.57;;;7.83;;
31482;SDS011;18103;52.246;8.052;2022-11-30T09:01:23;13.20;;;7.23;;
31482;SDS011;18103;52.246;8.052;2022-11-30T09:03:51;13.70;;;6.83;;
31482;SDS011;18103;52.246;8.052;2022-11-30T09:06:19;13.97;;;7.03;;
31482;SDS011;18103;52.246;8.052;2022-11-30T09:08:46;12.67;;;7.30;;
31482;SDS011;18103;52.246;8.052;2022-11-30T09:13:39;21.97;;;8.40;;
31482;SDS011;18103;52.246;8.052;2022-11-30T09:16:06;17.03;;;7.87;;
31482;SDS011;18103;52.246;8.052;2022-11-30T09:18:32;14.20;;;7.17;;
31482;SDS011;18103;52.246;8.052;2022-11-30T09:21:02;19.70;;;8.87;;
31482;SDS011;18103;52.246;8.052;2022-11-30T09:23:30;14.27;;;6.93;;
31482;SDS011;18103;52.246;8.052;2022-11-30T09:25:57;13.67;;;7.33;;
31482;SDS011;18103;52.246;8.052;2022-11-30T09:28:23;17.10;;;8.60;;
31482;SDS011;18103;52.246;8.052;2022-11-30T09:30:49;14.23;;;7.30;;
31482;SDS011;18103;52.246;8.052;2022-11-30T09:33:15;15.67;;;7.00;;
31482;SDS011;18103;52.246;8.052;2022-11-30T09:35:40;17.13;;;7.83;;
31482;SDS011;18103;52.246;8.052;2022-11-30T09:38:06;16.13;;;7.50;;
31482;SDS011;18103;52.246;8.052;2022-11-30T09:40:32;14.00;;;7.47;;
31482;SDS011;18103;52.246;8.052;2022-11-30T09:43:05;16.70;;;7.17;;
31482;SDS011;18103;52.246;8.052;2022-11-30T09:45:43;12.33;;;6.83;;
31482;SDS011;18103;52.246;8.052;2022-11-30T09:48:20;12.87;;;6.97;;
31482;SDS011;18103;52.246;8.052;2022-11-30T09:50:59;15.37;;;7.93;;
31482;SDS011;18103;52.246;8.052;2022-11-30T09:53:35;13.33;;;7.23;;
31482;SDS011;18103;52.246;8.052;2022-11-30T09:56:05;14.10;;;7.47;;
31482;SDS011;18103;52.246;8.052;2022-11-30T09:58:45;14.90;;;7.17;;
31482;SDS011;18103;52.246;8.052;2022-11-30T10:01:16;14.70;;;7.53;;
31482;SDS011;18103;52.246;8.052;2022-11-30T10:03:43;16.23;;;7.70;;
31482;SDS011;18103;52.246;8.052;2022-11-30T10:06:15;16.73;;;8.17;;
31482;SDS011;18103;52.246;8.052;2022-11-30T10:09:15;19.37;;;8.27;;
31482;SDS011;18103;52.246;8.052;2022-11-30T10:16:57;15.13;;;6.97;;
31482;SDS011;18103;52.246;8.052;2022-11-30T10:25:12;13.23;;;8.10;;
31482;SDS011;18103;52.246;8.052;2022-11-30T10:27:52;13.07;;;7.27;;
31482;SDS011;18103;52.246;8.052;2022-11-30T10:30:25;13.57;;;7.37;;
31482;SDS011;18103;52.246;8.052;2022-11-30T10:32:58;15.10;;;7.23;;
31482;SDS011;18103;52.246;8.052;2022-11-30T10:38:25;13.50;;;6.53;;
31482;SDS011;18103;52.246;8.052;2022-11-30T10:40:55;12.03;;;5.90;;
31482;SDS011;18103;52.246;8.052;2022-11-30T10:43:59;10.80;;;5.93;;
31482;SDS011;18103;52.246;8.052;2022-11-30T10:46:25;16.77;;;6.97;;
31482;SDS011;18103;52.246;8.052;2022-11-30T10:48:56;12.30;;;6.70;;
31482;SDS011;18103;52.246;8.052;2022-11-30T10:51:30;12.67;;;6.87;;
31482;SDS011;18103;52.246;8.052;2022-11-30T10:54:00;8.97;;;5.83;;
31482;SDS011;18103;52.246;8.052;2022-11-30T10:56:28;10.50;;;6.30;;
31482;SDS011;18103;52.246;8.052;2022-11-30T10:59:01;12.93;;;6.47;;
31482;SDS011;18103;52.246;8.052;2022-11-30T11:01:40;9.70;;;6.07;;
31482;SDS011;18103;52.246;8.052;2022-11-30T11:06:34;13.67;;;7.40;;
31482;SDS011;18103;52.246;8.052;2022-11-30T11:12:00;15.60;;;7.40;;
31482;SDS011;18103;52.246;8.052;2022-11-30T11:14:28;14.50;;;7.60;;
31482;SDS011;18103;52.246;8.052;2022-11-30T11:17:05;13.43;;;7.40;;
31482;SDS011;18103;52.246;8.052;2022-11-30T11:19:47;12.07;;;7.40;;
31482;SDS011;18103;52.246;8.052;2022-11-30T11:24:45;11.90;;;7.70;;
31482;SDS011;18103;52.246;8.052;2022-11-30T11:27:28;16.43;;;8.97;;
31482;SDS011;18103;52.246;8.052;2022-11-30T11:32:24;15.83;;;8.50;;
31482;SDS011;18103;52.246;8.052;2022-11-30T11:34:52;15.80;;;8.23;;
31482;SDS011;18103;52.246;8.052;2022-11-30T11:42:24;16.40;;;9.17;;
31482;SDS011;18103;52.246;8.052;2022-11-30T11:44:53;16.30;;;8.53;;
31482;SDS011;18103;52.246;8.052;2022-11-30T11:47:23;14.50;;;8.80;;
31482;SDS011;18103;52.246;8.052;2022-11-30T11:50:06;16.30;;;9.07;;
31482;SDS011;18103;52.246;8.052;2022-11-30T11:52:42;17.10;;;8.53;;
31482;SDS011;18103;52.246;8.052;2022-11-30T11:55:11;21.37;;;10.60;;
31482;SDS011;18103;52.246;8.052;2022-11-30T11:57:46;26.03;;;11.13;;
31482;SDS011;18103;52.246;8.052;2022-11-30T12:00:18;23.87;;;12.23;;
31482;SDS011;18103;52.246;8.052;2022-11-30T12:05:52;31.77;;;11.90;;
31482;SDS011;18103;52.246;8.052;2022-11-30T12:08:43;23.70;;;11.63;;
31482;SDS011;18103;52.246;8.052;2022-11-30T12:11:18;27.33;;;11.63;;
31482;SDS011;18103;52.246;8.052;2022-11-30T12:13:51;26.87;;;12.97;;
31482;SDS011;18103;52.246;8.052;2022-11-30T12:23:07;29.20;;;13.53;;
31482;SDS011;18103;52.246;8.052;2022-11-30T12:25:53;33.23;;;12.23;;
31482;SDS011;18103;52.246;8.052;2022-11-30T12:33:45;34.73;;;12.40;;
31482;SDS011;18103;52.246;8.052;2022-11-30T12:45:07;38.27;;;13.80;;
31482;SDS011;18103;52.246;8.052;2022-11-30T12:48:05;32.53;;;13.90;;
31482;SDS011;18103;52.246;8.052;2022-11-30T12:50:37;35.20;;;14.00;;
31482;SDS011;18103;52.246;8.052;2022-11-30T13:04:35;31.03;;;12.63;;
31482;SDS011;18103;52.246;8.052;2022-11-30T13:10:33;36.40;;;11.90;;
31482;SDS011;18103;52.246;8.052;2022-11-30T13:12:45;31.60;;;11.77;;
31482;SDS011;18103;52.246;8.052;2022-11-30T13:15:18;34.50;;;13.53;;
31482;SDS011;18103;52.246;8.052;2022-11-30T13:17:52;38.27;;;13.63;;
31482;SDS011;18103;52.246;8.052;2022-11-30T13:20:43;36.40;;;13.37;;
31482;SDS011;18103;52.246;8.052;2022-11-30T13:23:20;33.47;;;12.17;;
31482;SDS011;18103;52.246;8.052;2022-11-30T13:26:04;23.57;;;11.00;;
31482;SDS011;18103;52.246;8.052;2022-11-30T13:31:35;35.13;;;13.07;;
31482;SDS011;18103;52.246;8.052;2022-11-30T13:34:20;31.73;;;13.37;;
31482;SDS011;18103;52.246;8.052;2022-11-30T13:36:46;35.20;;;12.30;;
31482;SDS011;18103;52.246;8.052;2022-11-30T13:41:37;34.60;;;12.77;;
31482;SDS011;18103;52.246;8.052;2022-11-30T13:44:30;29.10;;;13.17;;
31482;SDS011;18103;52.246;8.052;2022-11-30T13:46:59;36.57;;;13.03;;
31482;SDS011;18103;52.246;8.052;2022-11-30T13:49:30;38.50;;;13.87;;
31482;SDS011;18103;52.246;8.052;2022-11-30T13:52:01;35.00;;;14.40;;
31482;SDS011;18103;52.246;8.052;2022-11-30T14:07:37;39.07;;;15.20;;
31482;SDS011;18103;52.246;8.052;2022-11-30T14:10:03;50.70;;;15.90;;
31482;SDS011;18103;52.246;8.052;2022-11-30T14:12:58;43.67;;;13.37;;
31482;SDS011;18103;52.246;8.052;2022-11-30T14:15:29;39.27;;;14.27;;
31482;SDS011;18103;52.246;8.052;2022-11-30T14:18:22;36.90;;;12.97;;
31482;SDS011;18103;52.246;8.052;2022-11-30T14:21:01;50.60;;;14.47;;
31482;SDS011;18103;52.246;8.052;2022-11-30T14:26:06;29.47;;;13.50;;
31482;SDS011;18103;52.246;8.052;2022-11-30T14:31:06;26.57;;;11.33;;
31482;SDS011;18103;52.246;8.052;2022-11-30T14:36:10;35.37;;;13.53;;
31482;SDS011;18103;52.246;8.052;2022-11-30T14:38:39;31.53;;;12.30;;
31482;SDS011;18103;52.246;8.052;2022-11-30T14:41:15;24.63;;;12.33;;
31482;SDS011;18103;52.246;8.052;2022-11-30T14:43:59;35.43;;;14.33;;
31482;SDS011;18103;52.246;8.052;2022-11-30T14:46:27;33.13;;;13.13;;
31482;SDS011;18103;52.246;8.052;2022-11-30T14:51:50;39.13;;;14.17;;
31482;SDS011;18103;52.246;8.052;2022-11-30T14:57:18;45.20;;;15.90;;
31482;SDS011;18103;52.246;8.052;2022-11-30T14:59:53;44.07;;;15.53;;
31482;SDS011;18103;52.246;8.052;2022-11-30T15:02:21;50.10;;;17.77;;
31482;SDS011;18103;52.246;8.052;2022-11-30T15:04:53;48.90;;;18.13;;
31482;SDS011;18103;52.246;8.052;2022-11-30T15:07:20;53.10;;;18.90;;
31482;SDS011;18103;52.246;8.052;2022-11-30T15:09:48;54.97;;;19.03;;
31482;SDS011;18103;52.246;8.052;2022-11-30T15:12:20;49.70;;;19.80;;
31482;SDS011;18103;52.246;8.052;2022-11-30T15:15:01;53.43;;;17.07;;
31482;SDS011;18103;52.246;8.052;2022-11-30T15:17:26;54.83;;;18.70;;
31482;SDS011;18103;52.246;8.052;2022-11-30T15:19:51;50.20;;;20.20;;
31482;SDS011;18103;52.246;8.052;2022-11-30T15:22:21;62.30;;;19.90;;
31482;SDS011;18103;52.246;8.052;2022-11-30T15:24:47;57.43;;;18.90;;
31482;SDS011;18103;52.246;8.052;2022-11-30T15:27:13;60.17;;;20.57;;
31482;SDS011;18103;52.246;8.052;2022-11-30T15:29:48;57.53;;;20.23;;
31482;SDS011;18103;52.246;8.052;2022-11-30T15:32:21;51.47;;;20.70;;
31482;SDS011;18103;52.246;8.052;2022-11-30T15:34:49;49.50;;;19.73;;
31482;SDS011;18103;52.246;8.052;2022-11-30T15:37:34;58.10;;;18.87;;
31482;SDS011;18103;52.246;8.052;2022-11-30T15:40:07;44.17;;;19.27;;
31482;SDS011;18103;52.246;8.052;2022-11-30T15:42:35;49.27;;;18.07;;
31482;SDS011;18103;52.246;8.052;2022-11-30T15:45:20;53.47;;;19.63;;
31482;SDS011;18103;52.246;8.052;2022-11-30T15:47:52;49.20;;;17.23;;
31482;SDS011;18103;52.246;8.052;2022-11-30T15:50:29;56.03;;;17.97;;
31482;SDS011;18103;52.246;8.052;2022-11-30T15:52:59;51.87;;;19.97;;
31482;SDS011;18103;52.246;8.052;2022-11-30T16:01:14;46.90;;;17.43;;
31482;SDS011;18103;52.246;8.052;2022-11-30T16:04:02;41.73;;;16.77;;
31482;SDS011;18103;52.246;8.052;2022-11-30T16:08:56;48.60;;;15.90;;
31482;SDS011;18103;52.246;8.052;2022-11-30T16:11:26;42.67;;;16.90;;
31482;SDS011;18103;52.246;8.052;2022-11-30T16:13:51;47.17;;;16.70;;
31482;SDS011;18103;52.246;8.052;2022-11-30T16:16:18;48.70;;;17.60;;
31482;SDS011;18103;52.246;8.052;2022-11-30T16:18:46;46.77;;;16.27;;
31482;SDS011;18103;52.246;8.052;2022-11-30T16:21:16;35.73;;;15.00;;
31482;SDS011;18103;52.246;8.052;2022-11-30T16:23:43;42.73;;;16.47;;
31482;SDS011;18103;52.246;8.052;2022-11-30T16:26:10;54.03;;;18.40;;
31482;SDS011;18103;52.246;8.052;2022-11-30T16:28:36;50.60;;;16.60;;
31482;SDS011;18103;52.246;8.052;2022-11-30T16:31:02;44.10;;;15.93;;
31482;SDS011;18103;52.246;8.052;2022-11-30T16:33:28;41.57;;;15.17;;
31482;SDS011;18103;52.246;8.052;2022-11-30T16:35:59;34.90;;;14.23;;
31482;SDS011;18103;52.246;8.052;2022-11-30T16:38:26;44.00;;;15.33;;
31482;SDS011;18103;52.246;8.052;2022-11-30T16:40:52;38.17;;;15.20;;
31482;SDS011;18103;52.246;8.052;2022-11-30T16:43:22;53.90;;;17.80;;
31482;SDS011;18103;52.246;8.052;2022-11-30T16:45:50;49.20;;;17.30;;
31482;SDS011;18103;52.246;8.052;2022-11-30T16:48:16;45.93;;;15.77;;
31482;SDS011;18103;52.246;8.052;2022-11-30T16:50:41;53.70;;;15.50;;
31482;SDS011;18103;52.246;8.052;2022-11-30T16:53:09;49.87;;;16.27;;
31482;SDS011;18103;52.246;8.052;2022-11-30T16:55:39;46.73;;;16.57;;